createdAt,value
2018-12-20T00:00:18.477Z,88.90
2018-12-20T00:02:47.745Z,85.70
2018-12-20T00:05:16.995Z,83.80
2018-12-20T00:07:46.424Z,90.80
2018-12-20T00:10:15.916Z,81.70
2018-12-20T00:12:45.392Z,62.40
2018-12-20T00:15:16.705Z,69.60
2018-12-20T00:17:48.655Z,70.80
2018-12-20T00:20:18.079Z,70.30
2018-12-20T00:22:47.377Z,78.20
2018-12-20T00:25:16.887Z,79.60
2018-12-20T00:27:46.216Z,57.40
2018-12-20T00:30:15.516Z,68.60
2018-12-20T00:32:44.845Z,62.20
2018-12-20T00:35:14.252Z,71.40
2018-12-20T00:37:43.538Z,68.80
2018-12-20T00:40:12.897Z,87.00
2018-12-20T00:42:42.206Z,90.30
2018-12-20T00:45:11.645Z,89.40
2018-12-20T00:47:40.943Z,90.90
2018-12-20T00:50:10.286Z,93.70
2018-12-20T00:52:39.612Z,94.90
2018-12-20T00:55:08.862Z,94.00
2018-12-20T00:57:38.152Z,91.70
2018-12-20T01:00:10.445Z,90.10
2018-12-20T01:02:39.877Z,93.10
2018-12-20T01:05:09.188Z,92.20
2018-12-20T01:07:38.437Z,80.70
2018-12-20T01:10:08.084Z,85.90
2018-12-20T01:12:37.334Z,89.60
2018-12-20T01:15:07.126Z,90.00
2018-12-20T01:17:38.905Z,96.80
2018-12-20T01:20:10.460Z,97.90
2018-12-20T01:22:39.910Z,96.90
2018-12-20T01:25:09.188Z,98.80
2018-12-20T01:27:38.453Z,92.40
2018-12-20T01:30:08.407Z,81.20
2018-12-20T01:32:37.658Z,87.60
2018-12-20T01:35:06.916Z,84.30
2018-12-20T01:37:36.154Z,84.80
2018-12-20T01:40:06.346Z,83.00
2018-12-20T01:42:35.685Z,90.40
2018-12-20T01:45:05.750Z,85.50
2018-12-20T01:47:35.209Z,90.50
2018-12-20T01:50:05.624Z,90.50
2018-12-20T01:52:34.841Z,94.00
2018-12-20T01:55:04.326Z,96.90
2018-12-20T01:57:33.713Z,94.60
2018-12-20T02:00:05.330Z,92.90
2018-12-20T02:02:34.609Z,83.80
2018-12-20T02:05:04.117Z,74.00
2018-12-20T02:07:33.461Z,90.00
2018-12-20T02:10:03.417Z,90.50
2018-12-20T02:12:32.862Z,91.70
2018-12-20T02:15:02.451Z,76.10
2018-12-20T02:17:31.965Z,66.90
2018-12-20T02:20:01.448Z,76.20
2018-12-20T02:22:30.923Z,59.60
2018-12-20T02:25:00.420Z,70.20
2018-12-20T02:27:29.793Z,75.00
2018-12-20T02:29:59.175Z,79.20
2018-12-20T02:32:28.496Z,92.00
2018-12-20T02:34:57.740Z,91.60
2018-12-20T02:37:27.385Z,87.60
2018-12-20T02:39:57.052Z,92.50
2018-12-20T02:42:26.472Z,95.50
2018-12-20T02:44:55.794Z,97.40
2018-12-20T02:47:29.620Z,92.20
2018-12-20T02:49:59.056Z,93.70
2018-12-20T02:52:28.374Z,88.60
2018-12-20T02:54:57.677Z,83.50
2018-12-20T02:57:26.974Z,76.90
2018-12-20T02:59:56.283Z,72.80
2018-12-20T03:02:25.607Z,72.90
2018-12-20T03:04:54.897Z,83.30
2018-12-20T03:07:24.134Z,77.40
2018-12-20T03:09:53.653Z,68.00
2018-12-20T03:12:22.917Z,65.30
2018-12-20T03:14:52.442Z,58.60
2018-12-20T03:17:21.897Z,44.70
2018-12-20T03:19:51.196Z,36.70
2018-12-20T03:22:20.717Z,37.90
2018-12-20T03:24:49.997Z,46.00
2018-12-20T03:27:19.376Z,56.90
2018-12-20T03:29:49.070Z,35.30
2018-12-20T03:32:18.421Z,45.70
2018-12-20T03:34:47.684Z,40.80
2018-12-20T03:37:16.998Z,34.60
2018-12-20T03:39:46.533Z,45.00
2018-12-20T03:42:16.033Z,36.90
2018-12-20T03:44:45.639Z,52.30
2018-12-20T03:47:15.145Z,52.40
2018-12-20T03:49:44.758Z,44.10
2018-12-20T03:52:14.243Z,53.70
2018-12-20T03:54:43.925Z,75.90
2018-12-20T03:57:13.424Z,90.10
2018-12-20T03:59:42.989Z,90.10
2018-12-20T04:02:12.397Z,92.80
2018-12-20T04:04:41.766Z,88.60
2018-12-20T04:07:11.255Z,92.80
2018-12-20T04:09:40.778Z,96.80
2018-12-20T04:12:10.158Z,98.50
2018-12-20T04:14:39.390Z,97.30
2018-12-20T04:17:08.778Z,88.90
2018-12-20T04:19:38.057Z,91.00
2018-12-20T04:22:07.422Z,87.20
2018-12-20T04:24:36.755Z,80.60
2018-12-20T04:27:06.061Z,83.30
2018-12-20T04:29:35.306Z,76.80
2018-12-20T04:32:04.588Z,81.30
2018-12-20T04:34:33.890Z,77.10
2018-12-20T04:37:03.278Z,76.50
2018-12-20T04:39:32.807Z,75.50
2018-12-20T04:42:02.134Z,79.40
2018-12-20T04:44:31.460Z,80.00
2018-12-20T04:47:00.761Z,81.30
2018-12-20T04:49:30.281Z,76.10
2018-12-20T04:51:59.687Z,69.90
2018-12-20T04:54:29.059Z,71.00
2018-12-20T04:56:58.371Z,76.70
2018-12-20T04:59:27.788Z,74.90
2018-12-20T05:01:57.227Z,78.20
2018-12-20T05:04:26.661Z,85.70
2018-12-20T05:06:55.901Z,92.80
2018-12-20T05:09:25.173Z,95.60
2018-12-20T05:11:54.544Z,94.90
2018-12-20T05:14:26.497Z,95.70
2018-12-20T05:16:56.192Z,96.30
2018-12-20T05:19:25.638Z,98.50
2018-12-20T05:21:55.121Z,99.90
2018-12-20T05:24:24.412Z,99.90
2018-12-20T05:26:53.750Z,99.90
2018-12-20T05:29:23.084Z,99.90
2018-12-20T05:31:52.350Z,99.90
2018-12-20T05:34:21.628Z,99.70
2018-12-20T05:36:50.928Z,98.60
2018-12-20T05:39:20.356Z,97.10
2018-12-20T05:41:50.202Z,97.80
2018-12-20T05:44:19.533Z,98.10
2018-12-20T05:46:48.849Z,98.60
2018-12-20T05:49:18.102Z,99.90
2018-12-20T05:51:47.348Z,99.20
2018-12-20T05:54:16.755Z,99.90
2018-12-20T05:56:46.193Z,99.90
2018-12-20T05:59:15.524Z,99.40
2018-12-20T06:01:44.848Z,99.90
2018-12-20T06:04:14.173Z,99.90
2018-12-20T06:06:43.465Z,99.90
2018-12-20T06:09:12.957Z,99.90
2018-12-20T06:11:42.372Z,99.90
2018-12-20T06:14:11.709Z,99.90
2018-12-20T06:16:41.064Z,99.90
2018-12-20T06:19:10.384Z,99.90
2018-12-20T06:21:40.032Z,99.90
2018-12-20T06:24:09.289Z,99.90
2018-12-20T06:26:38.599Z,99.90
2018-12-20T06:29:07.850Z,99.90
2018-12-20T06:31:37.110Z,99.90
2018-12-20T06:34:06.343Z,99.90
2018-12-20T06:36:35.567Z,99.90
2018-12-20T06:39:08.103Z,99.90
2018-12-20T06:41:39.411Z,99.90
2018-12-20T06:44:08.621Z,99.90
2018-12-20T06:46:42.099Z,99.90
2018-12-20T06:49:11.361Z,99.90
2018-12-20T06:51:40.600Z,99.90
2018-12-20T06:54:09.863Z,99.90
2018-12-20T06:56:39.088Z,99.90
2018-12-20T06:59:08.343Z,99.90
2018-12-20T07:01:37.597Z,99.90
2018-12-20T07:04:06.842Z,98.80
2018-12-20T07:06:36.163Z,99.90
2018-12-20T07:09:08.642Z,99.90
2018-12-20T07:11:38.031Z,99.90
2018-12-20T07:14:07.401Z,99.90
2018-12-20T07:16:36.662Z,99.90
2018-12-20T07:19:06.020Z,99.90
2018-12-20T07:21:35.312Z,99.90
2018-12-20T07:24:04.726Z,99.90
2018-12-20T07:26:33.984Z,99.90
2018-12-20T07:29:03.295Z,99.90
2018-12-20T07:31:32.543Z,99.90
2018-12-20T07:34:01.807Z,99.90
2018-12-20T07:36:31.090Z,99.60
2018-12-20T07:39:00.360Z,98.20
2018-12-20T07:41:29.590Z,95.80
2018-12-20T07:43:58.850Z,97.10
2018-12-20T07:46:28.082Z,95.00
2018-12-20T07:48:57.331Z,92.80
2018-12-20T07:51:26.612Z,90.30
2018-12-20T07:53:55.937Z,92.60
2018-12-20T07:56:25.232Z,85.50
2018-12-20T07:58:54.474Z,76.90
2018-12-20T08:01:23.730Z,86.90
2018-12-20T08:03:53.005Z,87.70
2018-12-20T08:06:22.301Z,91.40
2018-12-20T08:08:51.558Z,88.80
2018-12-20T08:11:20.843Z,93.00
2018-12-20T08:13:50.082Z,92.70
2018-12-20T08:16:19.353Z,83.80
2018-12-20T08:18:48.621Z,87.00
2018-12-20T08:21:17.879Z,85.00
2018-12-20T08:23:47.146Z,90.40
2018-12-20T08:26:16.392Z,84.40
2018-12-20T08:28:45.627Z,88.00
2018-12-20T08:31:14.912Z,77.50
2018-12-20T08:33:44.153Z,82.60
2018-12-20T08:36:13.448Z,73.90
2018-12-20T08:38:42.685Z,62.30
2018-12-20T08:41:11.985Z,60.40
2018-12-20T08:43:41.246Z,42.70
2018-12-20T08:46:10.529Z,55.90
2018-12-20T08:48:39.784Z,60.50
2018-12-20T08:51:09.010Z,69.00
2018-12-20T08:53:38.280Z,57.70
2018-12-20T08:56:07.565Z,62.00
2018-12-20T08:58:36.809Z,72.60
2018-12-20T09:01:06.073Z,73.50
2018-12-20T09:03:35.320Z,66.30
2018-12-20T09:06:04.591Z,57.30
2018-12-20T09:08:33.891Z,49.10
2018-12-20T09:11:03.124Z,46.50
2018-12-20T09:13:32.383Z,33.50
2018-12-20T09:16:01.737Z,33.80
2018-12-20T09:18:31.038Z,22.30
2018-12-20T09:21:00.338Z,1.00
2018-12-20T09:23:29.638Z,1.00
2018-12-20T09:25:58.869Z,1.00
2018-12-20T09:28:28.142Z,1.00
2018-12-20T09:30:57.383Z,1.00
2018-12-20T09:33:26.670Z,1.00
2018-12-20T09:35:55.883Z,1.00
2018-12-20T09:38:25.154Z,1.00
2018-12-20T09:40:54.423Z,1.00
2018-12-20T09:43:24.900Z,1.00
2018-12-20T09:45:54.410Z,1.00
2018-12-20T09:48:23.729Z,1.00
2018-12-20T09:50:52.981Z,1.00
2018-12-20T09:53:22.250Z,1.00
2018-12-20T09:55:51.514Z,99.90
2018-12-20T09:58:20.833Z,99.90
2018-12-20T10:00:50.173Z,1.00
2018-12-20T10:03:19.478Z,99.90
2018-12-20T10:05:48.779Z,1.00
2018-12-20T10:08:19.030Z,1.00
2018-12-20T10:10:48.295Z,1.00
2018-12-20T10:13:17.533Z,1.00
2018-12-20T10:15:46.869Z,1.00
2018-12-20T10:18:16.133Z,1.00
2018-12-20T10:20:45.525Z,1.00
2018-12-20T10:23:14.791Z,1.00
2018-12-20T10:25:44.056Z,1.00
2018-12-20T10:28:14.211Z,1.00
2018-12-20T10:30:44.317Z,1.00
2018-12-20T10:33:13.550Z,1.00
2018-12-20T10:35:42.822Z,1.00
2018-12-20T10:38:12.074Z,1.00
2018-12-20T10:40:41.612Z,1.00
2018-12-20T10:43:10.846Z,1.00
2018-12-20T10:45:40.129Z,99.90
2018-12-20T10:48:09.492Z,1.00
2018-12-20T10:50:38.743Z,1.00
2018-12-20T10:53:08.068Z,1.00
2018-12-20T10:55:37.476Z,1.00
2018-12-20T10:58:06.741Z,1.00
2018-12-20T11:00:41.426Z,1.00
2018-12-20T11:03:15.860Z,1.00
2018-12-20T11:05:50.604Z,1.00
2018-12-20T11:08:23.934Z,1.00
2018-12-20T11:10:58.389Z,1.00
2018-12-20T11:13:28.009Z,1.00
2018-12-20T11:15:57.367Z,1.00
2018-12-20T11:18:26.596Z,1.00
2018-12-20T11:20:55.897Z,1.00
2018-12-20T11:23:25.168Z,1.00
2018-12-20T11:25:54.437Z,1.00
2018-12-20T11:28:23.743Z,1.00
2018-12-20T11:30:52.984Z,1.00
2018-12-20T11:33:22.377Z,1.00
2018-12-20T11:35:51.646Z,1.00
2018-12-20T11:38:20.920Z,1.00
2018-12-20T11:40:50.177Z,1.00
2018-12-20T11:43:19.422Z,1.00
2018-12-20T11:45:48.709Z,1.00
2018-12-20T11:48:18.579Z,1.00
2018-12-20T11:50:47.813Z,1.00
2018-12-20T11:53:17.080Z,1.00
2018-12-20T11:55:46.343Z,1.00
2018-12-20T11:58:15.609Z,1.00
2018-12-20T12:00:44.887Z,1.00
2018-12-20T12:03:14.215Z,1.00
2018-12-20T12:05:43.497Z,1.00
2018-12-20T12:08:12.765Z,1.00
2018-12-20T12:10:42.149Z,1.00
2018-12-20T12:13:11.477Z,1.00
2018-12-20T12:15:40.794Z,1.00
2018-12-20T12:18:10.126Z,1.00
2018-12-20T12:20:39.388Z,1.00
2018-12-20T12:23:08.695Z,1.00
2018-12-20T12:25:38.060Z,1.00
2018-12-20T12:28:07.320Z,1.00
2018-12-20T12:30:36.598Z,1.00
2018-12-20T12:33:05.942Z,1.00
2018-12-20T12:35:35.227Z,1.00
2018-12-20T12:38:04.534Z,1.00
2018-12-20T12:40:33.938Z,1.00
2018-12-20T12:43:03.234Z,1.00
2018-12-20T12:45:32.548Z,1.00
2018-12-20T12:48:03.798Z,1.00
2018-12-20T12:50:33.058Z,1.00
2018-12-20T12:53:02.303Z,1.00
2018-12-20T12:55:31.576Z,1.00
2018-12-20T12:58:04.540Z,1.00
2018-12-20T13:00:32.206Z,1.00
2018-12-20T13:03:01.777Z,1.00
2018-12-20T13:05:31.066Z,1.00
2018-12-20T13:08:00.417Z,1.00
2018-12-20T13:10:29.665Z,1.00
2018-12-20T13:12:58.929Z,1.00
2018-12-20T13:15:28.250Z,1.00
2018-12-20T13:17:57.516Z,1.00
2018-12-20T13:20:26.779Z,1.00
2018-12-20T13:22:56.061Z,1.00
2018-12-20T13:25:25.680Z,1.00
2018-12-20T13:27:54.909Z,1.00
2018-12-20T13:30:24.157Z,1.00
2018-12-20T13:32:53.433Z,1.00
2018-12-20T13:35:22.696Z,1.00
2018-12-20T13:37:51.972Z,1.00
2018-12-20T13:40:21.257Z,99.90
2018-12-20T13:42:50.510Z,99.90
2018-12-20T13:45:19.913Z,99.90
2018-12-20T13:47:49.202Z,99.90
2018-12-20T13:50:18.446Z,1.00
2018-12-20T13:52:47.745Z,1.00
2018-12-20T13:55:17.005Z,1.00
2018-12-20T13:57:46.273Z,1.00
2018-12-20T14:00:15.876Z,1.00
2018-12-20T14:02:45.169Z,1.00
2018-12-20T14:05:14.533Z,1.00
2018-12-20T14:07:43.799Z,1.00
2018-12-20T14:10:13.093Z,1.00
2018-12-20T14:12:42.393Z,99.90
2018-12-20T14:15:11.665Z,99.90
2018-12-20T14:17:40.944Z,99.90
2018-12-20T14:20:10.290Z,99.90
2018-12-20T14:22:39.608Z,99.90
2018-12-20T14:25:08.898Z,99.90
2018-12-20T14:27:38.159Z,1.00
2018-12-20T14:30:09.629Z,1.00
2018-12-20T14:32:38.894Z,99.90
2018-12-20T14:35:08.141Z,1.00
2018-12-20T14:37:37.414Z,1.00
2018-12-20T14:40:08.756Z,99.90
2018-12-20T14:42:38.113Z,20.80
2018-12-20T14:45:07.732Z,99.90
2018-12-20T14:47:37.001Z,1.00
2018-12-20T14:50:08.095Z,1.00
2018-12-20T14:52:37.468Z,1.00
2018-12-20T14:55:08.826Z,1.00
2018-12-20T14:57:38.274Z,1.00
2018-12-20T15:00:09.648Z,1.00
2018-12-20T15:02:38.963Z,1.00
2018-12-20T15:05:08.563Z,1.00
2018-12-20T15:07:38.050Z,1.00
2018-12-20T15:10:09.288Z,1.00
2018-12-20T15:12:38.620Z,1.00
2018-12-20T15:15:09.300Z,1.00
2018-12-20T15:17:38.585Z,1.00
2018-12-20T15:20:09.142Z,1.00
2018-12-20T15:22:38.456Z,1.00
2018-12-20T15:25:07.843Z,1.00
2018-12-20T15:27:37.181Z,1.00
2018-12-20T15:30:08.076Z,1.00
2018-12-20T15:32:37.354Z,1.00
2018-12-20T15:35:07.003Z,1.00
2018-12-20T15:37:36.317Z,1.00
2018-12-20T15:40:07.269Z,1.00
2018-12-20T15:42:36.539Z,1.00
2018-12-20T15:45:07.303Z,1.00
2018-12-20T15:47:37.293Z,1.00
2018-12-20T15:50:08.072Z,1.00
2018-12-20T15:52:37.341Z,1.00
2018-12-20T15:55:07.219Z,1.00
2018-12-20T15:57:36.518Z,1.00
2018-12-20T16:00:08.698Z,5.10
2018-12-20T16:02:38.088Z,8.10
2018-12-20T16:05:07.547Z,11.30
2018-12-20T16:07:36.880Z,18.60
2018-12-20T16:10:08.469Z,29.40
2018-12-20T16:12:43.645Z,34.70
2018-12-20T16:15:14.489Z,40.90
2018-12-20T16:17:44.317Z,46.90
2018-12-20T16:20:13.745Z,41.40
2018-12-20T16:22:43.022Z,43.40
2018-12-20T16:25:12.395Z,40.60
2018-12-20T16:27:42.453Z,37.50
2018-12-20T16:30:12.027Z,42.20
2018-12-20T16:32:41.573Z,40.90
2018-12-20T16:35:11.301Z,41.20
2018-12-20T16:37:41.658Z,43.30
2018-12-20T16:40:11.622Z,57.90
2018-12-20T16:42:40.928Z,59.20
2018-12-20T16:45:10.537Z,67.10
2018-12-20T16:47:40.300Z,75.80
2018-12-20T16:50:10.202Z,75.80
2018-12-20T16:52:39.488Z,77.90
2018-12-20T16:55:09.285Z,75.10
2018-12-20T16:57:38.536Z,77.10
2018-12-20T17:00:10.026Z,74.60
2018-12-20T17:02:39.392Z,78.30
2018-12-20T17:05:08.889Z,73.80
2018-12-20T17:07:38.193Z,76.70
2018-12-20T17:10:08.665Z,70.70
2018-12-20T17:12:38.869Z,72.10
2018-12-20T17:15:08.181Z,70.80
2018-12-20T17:17:37.444Z,72.50
2018-12-20T17:20:08.085Z,70.90
2018-12-20T17:22:37.473Z,68.60
2018-12-20T17:25:06.953Z,59.80
2018-12-20T17:27:36.274Z,57.70
2018-12-20T17:30:07.367Z,57.50
2018-12-20T17:32:36.642Z,53.00
2018-12-20T17:35:05.902Z,52.30
2018-12-20T17:37:35.253Z,55.50
2018-12-20T17:40:04.869Z,47.00
2018-12-20T17:42:34.218Z,42.20
2018-12-20T17:45:04.052Z,40.40
2018-12-20T17:47:33.452Z,40.60
2018-12-20T17:50:02.733Z,41.60
2018-12-20T17:52:32.115Z,37.40
2018-12-20T17:55:01.466Z,40.70
2018-12-20T17:57:30.766Z,37.80
2018-12-20T18:00:00.351Z,34.70
2018-12-20T18:02:29.699Z,40.30
2018-12-20T18:05:06.658Z,40.40
2018-12-20T18:07:30.417Z,58.10
2018-12-20T18:09:59.770Z,28.50
2018-12-20T18:12:29.067Z,33.90
2018-12-20T18:14:58.421Z,39.10
2018-12-20T18:17:28.458Z,39.40
2018-12-20T18:19:57.867Z,31.30
2018-12-20T18:22:27.272Z,29.40
2018-12-20T18:24:56.570Z,24.40
2018-12-20T18:27:25.986Z,28.30
2018-12-20T18:29:55.556Z,29.20
2018-12-20T18:32:24.817Z,23.70
2018-12-20T18:34:54.127Z,24.30
2018-12-20T18:37:23.420Z,29.90
2018-12-20T18:39:53.298Z,34.40
2018-12-20T18:42:22.815Z,28.00
2018-12-20T18:44:52.120Z,24.60
2018-12-20T18:47:21.512Z,24.70
2018-12-20T18:49:51.726Z,24.40
2018-12-20T18:52:21.226Z,25.80
2018-12-20T18:54:50.549Z,24.50
2018-12-20T18:57:19.826Z,19.20
2018-12-20T18:59:49.163Z,19.30
2018-12-20T19:02:18.457Z,14.70
2018-12-20T19:04:47.712Z,20.40
2018-12-20T19:07:19.120Z,16.80
2018-12-20T19:09:48.550Z,23.60
2018-12-20T19:12:18.293Z,18.60
2018-12-20T19:14:47.628Z,20.70
2018-12-20T19:17:16.960Z,22.30
2018-12-20T19:19:55.994Z,17.40
2018-12-20T19:22:19.881Z,19.60
2018-12-20T19:24:49.220Z,18.00
2018-12-20T19:27:19.571Z,21.30
2018-12-20T19:29:48.898Z,20.50
2018-12-20T19:32:18.212Z,24.30
2018-12-20T19:34:47.637Z,22.70
2018-12-20T19:37:16.951Z,19.70
2018-12-20T19:39:48.262Z,16.60
2018-12-20T19:42:17.593Z,16.00
2018-12-20T19:44:47.597Z,2.70
2018-12-20T19:47:16.919Z,9.90
2018-12-20T19:49:46.524Z,5.40
2018-12-20T19:52:16.053Z,1.00
2018-12-20T19:54:48.155Z,2.90
2018-12-20T19:57:16.780Z,1.00
2018-12-20T19:59:48.250Z,1.00
2018-12-20T20:02:17.544Z,1.00
2018-12-20T20:04:46.844Z,1.00
2018-12-20T20:07:16.906Z,1.00
2018-12-20T20:09:46.726Z,1.00
2018-12-20T20:12:16.001Z,1.00
2018-12-20T20:14:46.214Z,22.80
2018-12-20T20:17:15.540Z,1.00
2018-12-20T20:19:44.901Z,1.00
2018-12-20T20:22:14.251Z,1.00
2018-12-20T20:24:43.633Z,7.10
2018-12-20T20:27:12.921Z,11.00
2018-12-20T20:29:42.235Z,18.30
2018-12-20T20:32:11.579Z,5.60
2018-12-20T20:34:40.912Z,19.80
2018-12-20T20:37:10.587Z,6.00
2018-12-20T20:39:42.928Z,18.90
2018-12-20T20:42:13.846Z,14.50
2018-12-20T20:44:43.265Z,7.50
2018-12-20T20:47:12.924Z,4.80
2018-12-20T20:49:42.278Z,8.30
2018-12-20T20:52:11.737Z,5.10
2018-12-20T20:54:41.251Z,1.20
2018-12-20T20:57:10.593Z,4.20
2018-12-20T20:59:40.453Z,3.90
2018-12-20T21:02:15.404Z,1.00
2018-12-20T21:04:44.669Z,6.80
2018-12-20T21:07:14.001Z,4.40
2018-12-20T21:09:43.248Z,1.50
2018-12-20T21:12:12.745Z,3.90
2018-12-20T21:14:42.026Z,4.10
2018-12-20T21:17:11.256Z,1.00
2018-12-20T21:19:40.597Z,1.00
2018-12-20T21:22:09.861Z,7.70
2018-12-20T21:24:39.143Z,14.60
2018-12-20T21:27:08.397Z,18.20
2018-12-20T21:29:37.629Z,21.40
2018-12-20T21:32:06.889Z,20.80
2018-12-20T21:34:36.187Z,24.10
2018-12-20T21:37:05.469Z,23.50
2018-12-20T21:39:34.818Z,20.80
2018-12-20T21:42:04.210Z,22.50
2018-12-20T21:44:33.513Z,20.60
2018-12-20T21:47:02.825Z,21.30
2018-12-20T21:49:32.117Z,21.10
2018-12-20T21:52:01.714Z,18.00
2018-12-20T21:54:31.030Z,16.50
2018-12-20T21:57:00.287Z,18.10
2018-12-20T21:59:30.428Z,14.40
2018-12-20T22:01:59.754Z,15.90
2018-12-20T22:04:28.997Z,21.30
2018-12-20T22:06:58.304Z,20.80
2018-12-20T22:09:27.512Z,24.70
2018-12-20T22:11:56.888Z,27.00
2018-12-20T22:14:26.150Z,25.00
2018-12-20T22:16:55.422Z,24.60
2018-12-20T22:19:24.671Z,22.20
2018-12-20T22:21:53.919Z,22.40
2018-12-20T22:24:23.187Z,19.60
2018-12-20T22:26:52.438Z,26.30
2018-12-20T22:29:21.713Z,24.20
2018-12-20T22:31:50.952Z,22.40
2018-12-20T22:34:20.193Z,20.70
2018-12-20T22:36:49.444Z,19.40
2018-12-20T22:39:18.685Z,22.80
2018-12-20T22:41:47.956Z,24.60
2018-12-20T22:44:17.197Z,22.30
2018-12-20T22:46:46.424Z,24.20
2018-12-20T22:49:15.665Z,28.20
2018-12-20T22:51:44.915Z,33.00
2018-12-20T22:54:14.170Z,33.50
2018-12-20T22:56:43.432Z,40.40
2018-12-20T22:59:12.706Z,38.00
2018-12-20T23:01:41.953Z,42.90
2018-12-20T23:04:11.228Z,45.50
2018-12-20T23:06:40.446Z,49.00
2018-12-20T23:09:09.656Z,57.00
2018-12-20T23:11:38.971Z,57.40
2018-12-20T23:14:08.317Z,64.00
2018-12-20T23:16:37.557Z,76.60
2018-12-20T23:19:06.927Z,81.70
2018-12-20T23:21:36.140Z,86.60
2018-12-20T23:24:05.382Z,90.50
2018-12-20T23:26:34.645Z,90.50
2018-12-20T23:29:03.888Z,83.90
2018-12-20T23:31:33.157Z,79.40
2018-12-20T23:34:02.544Z,75.30
2018-12-20T23:36:31.780Z,65.40
2018-12-20T23:39:01.012Z,63.80
2018-12-20T23:41:30.265Z,61.70
2018-12-20T23:43:59.500Z,66.70
2018-12-20T23:46:28.902Z,57.80
2018-12-20T23:48:58.112Z,55.20
2018-12-20T23:51:27.321Z,57.60
2018-12-20T23:53:56.532Z,57.60
2018-12-20T23:56:25.756Z,52.50
2018-12-20T23:58:55.059Z,51.00
